sensor_id;sensor_type;location;lat;lon;timestamp;pressure;altitude;pressure_sealevel;temperature;humidity
38939;BME280;24211;49.980;19.776;2022-08-01T00:01:13;99120.16;;;16.66;100.00
38939;BME280;24211;49.980;19.776;2022-08-01T00:03:40;99116.91;;;16.64;100.00
38939;BME280;24211;49.980;19.776;2022-08-01T00:06:08;99119.63;;;16.64;100.00
38939;BME280;24211;49.980;19.776;2022-08-01T00:08:35;99109.91;;;16.63;100.00
38939;BME280;24211;49.980;19.776;2022-08-01T00:11:02;99119.06;;;16.62;100.00
38939;BME280;24211;49.980;19.776;2022-08-01T00:13:30;99123.94;;;16.60;100.00
38939;BME280;24211;49.980;19.776;2022-08-01T00:15:57;99116.91;;;16.59;100.00
38939;BME280;24211;49.980;19.776;2022-08-01T00:18:24;99113.97;;;16.56;100.00
38939;BME280;24211;49.980;19.776;2022-08-01T00:20:51;99114.47;;;16.53;100.00
38939;BME280;24211;49.980;19.776;2022-08-01T00:23:18;99119.56;;;16.49;100.00
38939;BME280;24211;49.980;19.776;2022-08-01T00:25:45;99124.97;;;16.49;100.00
38939;BME280;24211;49.980;19.776;2022-08-01T00:28:13;99123.34;;;16.48;100.00
38939;BME280;24211;49.980;19.776;2022-08-01T00:30:40;99116.03;;;16.49;100.00
38939;BME280;24211;49.980;19.776;2022-08-01T00:33:07;99117.97;;;16.48;100.00
38939;BME280;24211;49.980;19.776;2022-08-01T00:35:35;99120.91;;;16.47;100.00
38939;BME280;24211;49.980;19.776;2022-08-01T00:38:02;99120.13;;;16.46;100.00
38939;BME280;24211;49.980;19.776;2022-08-01T00:40:29;99111.47;;;16.44;100.00
38939;BME280;24211;49.980;19.776;2022-08-01T00:42:57;99112.00;;;16.41;100.00
38939;BME280;24211;49.980;19.776;2022-08-01T00:45:24;99114.16;;;16.39;100.00
38939;BME280;24211;49.980;19.776;2022-08-01T00:47:51;99113.59;;;16.37;100.00
38939;BME280;24211;49.980;19.776;2022-08-01T00:50:23;99111.44;;;16.34;100.00
38939;BME280;24211;49.980;19.776;2022-08-01T00:52:51;99114.41;;;16.32;100.00
38939;BME280;24211;49.980;19.776;2022-08-01T00:55:19;99117.38;;;16.31;100.00
38939;BME280;24211;49.980;19.776;2022-08-01T00:57:48;99111.19;;;16.30;100.00
38939;BME280;24211;49.980;19.776;2022-08-01T01:00:35;99109.81;;;16.28;100.00
38939;BME280;24211;49.980;19.776;2022-08-01T01:03:22;99113.03;;;16.25;100.00
38939;BME280;24211;49.980;19.776;2022-08-01T01:07:07;99115.19;;;16.23;100.00
38939;BME280;24211;49.980;19.776;2022-08-01T01:12:52;99120.31;;;16.19;100.00
38939;BME280;24211;49.980;19.776;2022-08-01T01:20:45;99114.66;;;16.16;100.00
38939;BME280;24211;49.980;19.776;2022-08-01T01:23:44;99113.00;;;16.15;100.00
38939;BME280;24211;49.980;19.776;2022-08-01T01:32:39;99114.63;;;16.11;100.00
38939;BME280;24211;49.980;19.776;2022-08-01T01:35:22;99111.41;;;16.09;100.00
38939;BME280;24211;49.980;19.776;2022-08-01T01:38:00;99114.09;;;16.09;100.00
38939;BME280;24211;49.980;19.776;2022-08-01T01:40:30;99117.03;;;16.07;100.00
38939;BME280;24211;49.980;19.776;2022-08-01T01:42:58;99110.84;;;16.07;100.00
38939;BME280;24211;49.980;19.776;2022-08-01T01:45:28;99123.75;;;16.05;100.00
38939;BME280;24211;49.980;19.776;2022-08-01T01:47:57;99121.63;;;16.02;100.00
38939;BME280;24211;49.980;19.776;2022-08-01T01:50:27;99119.97;;;16.01;100.00
38939;BME280;24211;49.980;19.776;2022-08-01T01:52:57;99123.75;;;16.00;100.00
38939;BME280;24211;49.980;19.776;2022-08-01T01:55:26;99118.63;;;15.98;100.00
38939;BME280;24211;49.980;19.776;2022-08-01T01:57:55;99120.78;;;15.96;100.00
38939;BME280;24211;49.980;19.776;2022-08-01T02:00:24;99127.50;;;15.94;100.00
38939;BME280;24211;49.980;19.776;2022-08-01T02:02:55;99117.25;;;15.91;100.00
38939;BME280;24211;49.980;19.776;2022-08-01T02:05:25;99117.78;;;15.88;100.00
38939;BME280;24211;49.980;19.776;2022-08-01T02:12:37;99122.59;;;15.81;100.00
38939;BME280;24211;49.980;19.776;2022-08-01T02:15:07;99108.56;;;15.79;100.00
38939;BME280;24211;49.980;19.776;2022-08-01T02:17:47;99119.06;;;15.75;100.00
38939;BME280;24211;49.980;19.776;2022-08-01T02:20:17;99117.69;;;15.73;100.00
38939;BME280;24211;49.980;19.776;2022-08-01T02:22:53;99119.03;;;15.70;100.00
38939;BME280;24211;49.980;19.776;2022-08-01T02:25:41;99116.06;;;15.66;100.00
38939;BME280;24211;49.980;19.776;2022-08-01T02:28:37;99121.97;;;15.63;100.00
38939;BME280;24211;49.980;19.776;2022-08-01T02:31:11;99117.09;;;15.60;100.00
38939;BME280;24211;49.980;19.776;2022-08-01T02:33:45;99113.88;;;15.58;100.00
38939;BME280;24211;49.980;19.776;2022-08-01T02:36:18;99123.28;;;15.56;100.00
38939;BME280;24211;49.980;19.776;2022-08-01T02:39:03;99126.25;;;15.54;100.00
38939;BME280;24211;49.980;19.776;2022-08-01T02:41:41;99121.38;;;15.51;100.00
38939;BME280;24211;49.980;19.776;2022-08-01T02:44:16;99125.41;;;15.49;100.00
38939;BME280;24211;49.980;19.776;2022-08-01T02:46:56;99126.72;;;15.46;100.00
38939;BME280;24211;49.980;19.776;2022-08-01T02:49:37;99127.22;;;15.43;100.00
38939;BME280;24211;49.980;19.776;2022-08-01T02:52:14;99125.84;;;15.41;100.00
38939;BME280;24211;49.980;19.776;2022-08-01T02:54:45;99119.09;;;15.38;100.00
38939;BME280;24211;49.980;19.776;2022-08-01T02:57:16;99125.03;;;15.35;100.00
38939;BME280;24211;49.980;19.776;2022-08-01T02:59:47;99136.03;;;15.34;100.00
38939;BME280;24211;49.980;19.776;2022-08-01T03:02:25;99127.69;;;15.30;100.00
38939;BME280;24211;49.980;19.776;2022-08-01T03:04:56;99128.22;;;15.27;100.00
38939;BME280;24211;49.980;19.776;2022-08-01T03:07:27;99126.56;;;15.26;100.00
38939;BME280;24211;49.980;19.776;2022-08-01T03:19:44;99131.88;;;15.16;100.00
38939;BME280;24211;49.980;19.776;2022-08-01T03:22:39;99120.03;;;15.12;100.00
38939;BME280;24211;49.980;19.776;2022-08-01T03:26:46;99121.06;;;15.11;100.00
38939;BME280;24211;49.980;19.776;2022-08-01T03:29:24;99124.84;;;15.10;100.00
38939;BME280;24211;49.980;19.776;2022-08-01T03:31:53;99130.75;;;15.07;100.00
38939;BME280;24211;49.980;19.776;2022-08-01T03:43:46;99138.22;;;15.00;100.00
38939;BME280;24211;49.980;19.776;2022-08-01T03:46:26;99149.00;;;15.00;100.00
38939;BME280;24211;49.980;19.776;2022-08-01T03:49:05;99141.19;;;14.98;100.00
38939;BME280;24211;49.980;19.776;2022-08-01T03:51:34;99152.75;;;14.99;100.00
38939;BME280;24211;49.980;19.776;2022-08-01T03:54:04;99152.75;;;14.99;100.00
38939;BME280;24211;49.980;19.776;2022-08-01T03:56:34;99153.28;;;14.96;100.00
38939;BME280;24211;49.980;19.776;2022-08-01T03:59:05;99155.97;;;14.96;100.00
38939;BME280;24211;49.980;19.776;2022-08-01T04:01:33;99157.03;;;14.95;100.00
38939;BME280;24211;49.980;19.776;2022-08-01T04:04:02;99156.53;;;14.98;100.00
38939;BME280;24211;49.980;19.776;2022-08-01T04:06:32;99164.59;;;14.98;100.00
38939;BME280;24211;49.980;19.776;2022-08-01T04:09:00;99160.81;;;14.99;100.00
38939;BME280;24211;49.980;19.776;2022-08-01T04:11:28;99168.66;;;15.00;100.00
38939;BME280;24211;49.980;19.776;2022-08-01T04:13:55;99159.25;;;15.03;100.00
38939;BME280;24211;49.980;19.776;2022-08-01T04:16:24;99161.69;;;15.04;100.00
38939;BME280;24211;49.980;19.776;2022-08-01T04:18:51;99170.06;;;15.08;100.00
38939;BME280;24211;49.980;19.776;2022-08-01T04:21:25;99165.22;;;15.10;100.00
38939;BME280;24211;49.980;19.776;2022-08-01T04:24:01;99166.84;;;15.11;100.00
38939;BME280;24211;49.980;19.776;2022-08-01T04:26:36;99166.84;;;15.11;100.00
38939;BME280;24211;49.980;19.776;2022-08-01T04:29:06;99165.22;;;15.10;100.00
38939;BME280;24211;49.980;19.776;2022-08-01T04:31:36;99168.47;;;15.12;100.00
38939;BME280;24211;49.980;19.776;2022-08-01T04:34:17;99161.44;;;15.11;100.00
38939;BME280;24211;49.980;19.776;2022-08-01T04:36:48;99161.44;;;15.11;100.00
38939;BME280;24211;49.980;19.776;2022-08-01T04:39:18;99160.94;;;15.14;100.00
38939;BME280;24211;49.980;19.776;2022-08-01T04:41:48;99156.09;;;15.16;100.00
38939;BME280;24211;49.980;19.776;2022-08-01T04:44:16;99164.22;;;15.21;100.00
38939;BME280;24211;49.980;19.776;2022-08-01T04:46:44;99169.09;;;15.24;100.00
38939;BME280;24211;49.980;19.776;2022-08-01T04:49:12;99158.66;;;15.33;100.00
38939;BME280;24211;49.980;19.776;2022-08-01T04:51:53;99159.53;;;15.43;100.00
38939;BME280;24211;49.980;19.776;2022-08-01T04:54:29;99158.56;;;15.54;100.00
38939;BME280;24211;49.980;19.776;2022-08-01T04:56:57;99154.84;;;15.65;100.00
38939;BME280;24211;49.980;19.776;2022-08-01T04:59:28;99157.34;;;15.77;100.00
38939;BME280;24211;49.980;19.776;2022-08-01T05:02:13;99149.06;;;15.94;100.00
38939;BME280;24211;49.980;19.776;2022-08-01T05:04:43;99154.00;;;16.07;100.00
38939;BME280;24211;49.980;19.776;2022-08-01T05:07:12;99146.50;;;16.24;100.00
38939;BME280;24211;49.980;19.776;2022-08-01T05:09:41;99151.38;;;16.37;100.00
38939;BME280;24211;49.980;19.776;2022-08-01T05:12:09;99147.34;;;16.50;100.00
38939;BME280;24211;49.980;19.776;2022-08-01T05:14:38;99151.47;;;16.62;99.90
38939;BME280;24211;49.980;19.776;2022-08-01T05:17:07;99151.47;;;16.82;99.81
38939;BME280;24211;49.980;19.776;2022-08-01T05:19:37;99151.75;;;17.01;99.85
38939;BME280;24211;49.980;19.776;2022-08-01T05:22:08;99149.88;;;17.22;98.46
38939;BME280;24211;49.980;19.776;2022-08-01T05:24:38;99143.34;;;17.43;98.79
38939;BME280;24211;49.980;19.776;2022-08-01T05:27:07;99145.75;;;17.64;100.00
38939;BME280;24211;49.980;19.776;2022-08-01T05:29:39;99149.25;;;17.75;100.00
38939;BME280;24211;49.980;19.776;2022-08-01T05:32:11;99158.34;;;17.94;100.00
38939;BME280;24211;49.980;19.776;2022-08-01T05:34:38;99146.41;;;18.10;100.00
38939;BME280;24211;49.980;19.776;2022-08-01T05:37:05;99149.34;;;18.19;100.00
38939;BME280;24211;49.980;19.776;2022-08-01T05:39:33;99143.63;;;18.25;100.00
38939;BME280;24211;49.980;19.776;2022-08-01T05:42:00;99145.16;;;18.47;98.88
38939;BME280;24211;49.980;19.776;2022-08-01T05:44:29;99145.25;;;18.70;97.48
38939;BME280;24211;49.980;19.776;2022-08-01T05:46:57;99144.56;;;18.93;96.26
38939;BME280;24211;49.980;19.776;2022-08-01T05:49:24;99152.19;;;19.20;95.08
38939;BME280;24211;49.980;19.776;2022-08-01T05:51:51;99141.16;;;19.45;93.70
38939;BME280;24211;49.980;19.776;2022-08-01T05:54:19;99134.88;;;19.74;92.63
38939;BME280;24211;49.980;19.776;2022-08-01T05:56:46;99131.88;;;19.99;91.07
38939;BME280;24211;49.980;19.776;2022-08-01T05:59:14;99128.03;;;20.24;89.63
38939;BME280;24211;49.980;19.776;2022-08-01T06:01:41;99134.00;;;20.44;88.57
38939;BME280;24211;49.980;19.776;2022-08-01T06:04:11;99134.59;;;20.60;87.27
38939;BME280;24211;49.980;19.776;2022-08-01T06:06:38;99141.94;;;20.78;86.55
38939;BME280;24211;49.980;19.776;2022-08-01T06:09:05;99136.38;;;21.02;85.11
38939;BME280;24211;49.980;19.776;2022-08-01T06:11:32;99136.25;;;21.25;84.24
38939;BME280;24211;49.980;19.776;2022-08-01T06:13:59;99135.09;;;21.45;82.69
38939;BME280;24211;49.980;19.776;2022-08-01T06:16:27;99135.53;;;21.52;81.44
38939;BME280;24211;49.980;19.776;2022-08-01T06:18:54;99125.06;;;21.59;81.00
38939;BME280;24211;49.980;19.776;2022-08-01T06:21:23;99128.91;;;21.85;79.95
38939;BME280;24211;49.980;19.776;2022-08-01T06:23:50;99119.03;;;21.89;78.41
38939;BME280;24211;49.980;19.776;2022-08-01T06:26:18;99125.38;;;21.71;78.87
38939;BME280;24211;49.980;19.776;2022-08-01T06:28:46;99131.72;;;21.80;78.26
38939;BME280;24211;49.980;19.776;2022-08-01T06:31:14;99119.22;;;22.06;76.22
38939;BME280;24211;49.980;19.776;2022-08-01T06:33:42;99123.41;;;22.40;74.61
38939;BME280;24211;49.980;19.776;2022-08-01T06:36:09;99123.72;;;22.74;73.41
38939;BME280;24211;49.980;19.776;2022-08-01T06:38:37;99124.19;;;23.12;72.57
38939;BME280;24211;49.980;19.776;2022-08-01T07:06:43;99135.53;;;23.97;65.41
38939;BME280;24211;49.980;19.776;2022-08-01T07:09:10;99126.19;;;23.98;65.47
38939;BME280;24211;49.980;19.776;2022-08-01T07:11:41;99124.09;;;23.87;65.49
38939;BME280;24211;49.980;19.776;2022-08-01T07:14:08;99123.81;;;24.05;64.61
38939;BME280;24211;49.980;19.776;2022-08-01T07:16:35;99119.41;;;24.35;63.63
38939;BME280;24211;49.980;19.776;2022-08-01T07:19:03;99118.78;;;24.73;62.25
38939;BME280;24211;49.980;19.776;2022-08-01T07:47:29;99111.81;;;26.81;56.08
38939;BME280;24211;49.980;19.776;2022-08-01T07:50:09;99107.53;;;26.92;56.14
38939;BME280;24211;49.980;19.776;2022-08-01T07:52:37;99104.06;;;27.16;55.72
38939;BME280;24211;49.980;19.776;2022-08-01T07:55:05;99104.66;;;27.21;54.70
38939;BME280;24211;49.980;19.776;2022-08-01T07:57:33;99101.66;;;27.02;55.25
38939;BME280;24211;49.980;19.776;2022-08-01T08:21:17;99086.44;;;28.34;50.39
38939;BME280;24211;49.980;19.776;2022-08-01T08:38:18;99085.38;;;28.51;45.88
38939;BME280;24211;49.980;19.776;2022-08-01T08:40:56;99073.09;;;28.88;44.46
38939;BME280;24211;49.980;19.776;2022-08-01T08:43:25;99079.69;;;29.27;44.40
38939;BME280;24211;49.980;19.776;2022-08-01T08:45:53;99082.47;;;29.43;43.65
38939;BME280;24211;49.980;19.776;2022-08-01T08:48:30;99082.81;;;29.88;42.55
38939;BME280;24211;49.980;19.776;2022-08-01T08:50:59;99074.69;;;30.11;43.07
38939;BME280;24211;49.980;19.776;2022-08-01T08:53:32;99078.63;;;30.10;43.62
38939;BME280;24211;49.980;19.776;2022-08-01T08:56:03;99079.66;;;30.21;43.18
38939;BME280;24211;49.980;19.776;2022-08-01T08:58:36;99077.47;;;30.30;43.58
38939;BME280;24211;49.980;19.776;2022-08-01T09:01:08;99071.84;;;30.42;42.72
38939;BME280;24211;49.980;19.776;2022-08-01T09:03:36;99066.50;;;30.68;42.22
38939;BME280;24211;49.980;19.776;2022-08-01T09:06:04;99075.66;;;30.91;42.20
38939;BME280;24211;49.980;19.776;2022-08-01T09:08:33;99070.91;;;31.11;42.43
38939;BME280;24211;49.980;19.776;2022-08-01T09:11:03;99068.34;;;31.22;42.15
38939;BME280;24211;49.980;19.776;2022-08-01T09:13:30;99073.34;;;31.35;41.58
38939;BME280;24211;49.980;19.776;2022-08-01T09:15:58;99068.25;;;31.60;41.10
38939;BME280;24211;49.980;19.776;2022-08-01T09:18:39;99069.84;;;31.84;40.96
38939;BME280;24211;49.980;19.776;2022-08-01T09:21:21;99063.53;;;32.09;39.15
38939;BME280;24211;49.980;19.776;2022-08-01T09:23:53;99066.69;;;32.08;39.58
38939;BME280;24211;49.980;19.776;2022-08-01T09:26:34;99071.28;;;32.26;39.99
38939;BME280;24211;49.980;19.776;2022-08-01T09:29:07;99071.47;;;32.41;39.56
38939;BME280;24211;49.980;19.776;2022-08-01T09:31:44;99070.63;;;32.63;38.75
38939;BME280;24211;49.980;19.776;2022-08-01T09:34:27;99071.03;;;32.65;38.67
38939;BME280;24211;49.980;19.776;2022-08-01T09:36:58;99070.38;;;32.78;37.52
38939;BME280;24211;49.980;19.776;2022-08-01T09:39:37;99068.00;;;32.77;38.14
38939;BME280;24211;49.980;19.776;2022-08-01T09:42:26;99067.59;;;32.75;38.14
38939;BME280;24211;49.980;19.776;2022-08-01T09:44:56;99059.63;;;33.03;37.40
38939;BME280;24211;49.980;19.776;2022-08-01T09:47:40;99064.06;;;33.11;36.73
38939;BME280;24211;49.980;19.776;2022-08-01T09:50:10;99060.63;;;33.21;36.76
38939;BME280;24211;49.980;19.776;2022-08-01T09:52:38;99059.59;;;33.40;36.32
38939;BME280;24211;49.980;19.776;2022-08-01T09:55:07;99059.78;;;33.58;36.56
38939;BME280;24211;49.980;19.776;2022-08-01T09:57:35;99058.34;;;33.78;36.42
38939;BME280;24211;49.980;19.776;2022-08-01T10:00:17;99052.59;;;34.04;36.47
38939;BME280;24211;49.980;19.776;2022-08-01T10:03:26;99051.59;;;34.33;35.93
38939;BME280;24211;49.980;19.776;2022-08-01T10:05:54;99058.00;;;34.44;35.68
38939;BME280;24211;49.980;19.776;2022-08-01T10:08:22;99053.34;;;34.62;35.70
38939;BME280;24211;49.980;19.776;2022-08-01T10:11:11;99040.75;;;34.97;35.27
38939;BME280;24211;49.980;19.776;2022-08-01T10:13:44;99037.59;;;34.98;35.29
38939;BME280;24211;49.980;19.776;2022-08-01T10:16:13;99045.50;;;34.93;34.92
38939;BME280;24211;49.980;19.776;2022-08-01T10:18:44;99039.19;;;35.03;34.71
38939;BME280;24211;49.980;19.776;2022-08-01T10:21:14;99044.00;;;35.20;34.58
38939;BME280;24211;49.980;19.776;2022-08-01T10:24:05;99039.66;;;35.33;34.32
38939;BME280;24211;49.980;19.776;2022-08-01T10:26:38;99030.53;;;35.43;34.47
38939;BME280;24211;49.980;19.776;2022-08-01T10:29:06;99030.53;;;35.50;34.14
38939;BME280;24211;49.980;19.776;2022-08-01T10:31:54;99035.31;;;35.74;34.27
38939;BME280;24211;49.980;19.776;2022-08-01T10:34:31;99041.66;;;35.71;34.22
38939;BME280;24211;49.980;19.776;2022-08-01T10:37:00;99039.28;;;35.66;32.95
38939;BME280;24211;49.980;19.776;2022-08-01T10:39:35;99037.69;;;35.69;30.40
38939;BME280;24211;49.980;19.776;2022-08-01T10:42:04;99036.91;;;35.61;30.48
38939;BME280;24211;49.980;19.776;2022-08-01T10:44:38;99035.28;;;35.88;28.95
38939;BME280;24211;49.980;19.776;2022-08-01T10:47:13;99041.63;;;35.92;28.09
38939;BME280;24211;49.980;19.776;2022-08-01T10:50:11;99032.94;;;35.48;29.92
38939;BME280;24211;49.980;19.776;2022-08-01T10:56:12;99021.81;;;35.48;31.29
38939;BME280;24211;49.980;19.776;2022-08-01T10:58:46;99032.94;;;35.62;30.87
38939;BME280;24211;49.980;19.776;2022-08-01T11:01:23;99028.13;;;35.80;28.31
38939;BME280;24211;49.980;19.776;2022-08-01T11:07:21;99020.22;;;35.47;28.56
38939;BME280;24211;49.980;19.776;2022-08-01T11:10:19;99027.38;;;35.55;28.48
38939;BME280;24211;49.980;19.776;2022-08-01T11:12:50;99032.09;;;35.51;28.49
38939;BME280;24211;49.980;19.776;2022-08-01T11:15:20;99029.34;;;35.69;27.90
38939;BME280;24211;49.980;19.776;2022-08-01T11:18:00;99032.13;;;35.37;28.52
38939;BME280;24211;49.980;19.776;2022-08-01T11:20:35;99031.28;;;35.19;29.36
38939;BME280;24211;49.980;19.776;2022-08-01T11:28:36;99032.13;;;35.37;27.79
38939;BME280;24211;49.980;19.776;2022-08-01T11:41:30;99029.19;;;34.73;28.70
38939;BME280;24211;49.980;19.776;2022-08-01T11:44:08;99021.63;;;34.63;28.82
38939;BME280;24211;49.980;19.776;2022-08-01T11:49:43;99034.94;;;34.33;29.38
38939;BME280;24211;49.980;19.776;2022-08-01T11:52:23;99033.28;;;34.14;30.05
38939;BME280;24211;49.980;19.776;2022-08-01T11:55:07;99033.94;;;34.01;30.82
38939;BME280;24211;49.980;19.776;2022-08-01T11:57:37;99033.13;;;33.93;31.62
38939;BME280;24211;49.980;19.776;2022-08-01T12:00:13;99036.22;;;33.85;32.14
38939;BME280;24211;49.980;19.776;2022-08-01T12:02:45;99027.06;;;33.77;32.36
38939;BME280;24211;49.980;19.776;2022-08-01T12:05:16;99025.00;;;33.64;32.51
38939;BME280;24211;49.980;19.776;2022-08-01T12:07:53;99027.16;;;33.40;32.14
38939;BME280;24211;49.980;19.776;2022-08-01T12:10:28;99037.66;;;33.21;32.53
38939;BME280;24211;49.980;19.776;2022-08-01T12:13:05;99033.44;;;32.97;32.88
38939;BME280;24211;49.980;19.776;2022-08-01T12:15:36;99033.66;;;32.81;32.79
38939;BME280;24211;49.980;19.776;2022-08-01T12:18:06;99039.75;;;32.61;33.00
38939;BME280;24211;49.980;19.776;2022-08-01T12:20:39;99044.25;;;32.43;33.76
38939;BME280;24211;49.980;19.776;2022-08-01T12:23:23;99048.72;;;32.24;34.07
38939;BME280;24211;49.980;19.776;2022-08-01T12:25:52;99045.28;;;32.05;34.69
38939;BME280;24211;49.980;19.776;2022-08-01T12:28:19;99049.88;;;31.97;34.55
38939;BME280;24211;49.980;19.776;2022-08-01T12:30:48;99046.09;;;31.79;34.75
38939;BME280;24211;49.980;19.776;2022-08-01T12:33:20;99048.03;;;31.79;34.65
38939;BME280;24211;49.980;19.776;2022-08-01T12:35:48;99040.69;;;31.63;34.86
38939;BME280;24211;49.980;19.776;2022-08-01T12:38:20;99042.44;;;31.49;34.99
38939;BME280;24211;49.980;19.776;2022-08-01T12:40:52;99040.47;;;31.49;34.78
38939;BME280;24211;49.980;19.776;2022-08-01T12:43:22;99050.03;;;31.55;35.51
38939;BME280;24211;49.980;19.776;2022-08-01T12:46:00;99039.09;;;31.62;35.29
38939;BME280;24211;49.980;19.776;2022-08-01T12:48:31;99037.44;;;31.58;35.12
38939;BME280;24211;49.980;19.776;2022-08-01T12:50:59;99040.59;;;31.56;34.99
38939;BME280;24211;49.980;19.776;2022-08-01T12:53:33;99043.72;;;31.55;35.07
38939;BME280;24211;49.980;19.776;2022-08-01T12:56:09;99037.22;;;31.44;35.21
38939;BME280;24211;49.980;19.776;2022-08-01T12:58:38;99035.47;;;31.36;35.73
38939;BME280;24211;49.980;19.776;2022-08-01T13:01:11;99031.00;;;31.28;35.49
38939;BME280;24211;49.980;19.776;2022-08-01T13:03:40;99030.56;;;31.26;35.58
38939;BME280;24211;49.980;19.776;2022-08-01T13:06:13;99038.00;;;31.22;35.72
38939;BME280;24211;49.980;19.776;2022-08-01T13:08:44;99037.44;;;31.13;35.96
38939;BME280;24211;49.980;19.776;2022-08-01T13:11:14;99027.50;;;31.08;35.99
38939;BME280;24211;49.980;19.776;2022-08-01T13:13:50;99030.59;;;31.07;36.10
38939;BME280;24211;49.980;19.776;2022-08-01T13:16:23;99018.91;;;31.13;36.07
38939;BME280;24211;49.980;19.776;2022-08-01T13:19:14;99019.38;;;31.19;36.79
38939;BME280;24211;49.980;19.776;2022-08-01T13:21:55;99019.88;;;31.24;36.94
38939;BME280;24211;49.980;19.776;2022-08-01T13:24:28;99019.50;;;31.26;36.93
38939;BME280;24211;49.980;19.776;2022-08-01T13:27:03;99016.31;;;31.24;36.63
38939;BME280;24211;49.980;19.776;2022-08-01T13:29:39;99020.38;;;31.30;36.86
38939;BME280;24211;49.980;19.776;2022-08-01T13:32:17;99019.69;;;31.36;36.80
38939;BME280;24211;49.980;19.776;2022-08-01T13:35:07;99022.06;;;31.38;36.49
38939;BME280;24211;49.980;19.776;2022-08-01T13:37:36;99018.00;;;31.51;36.02
38939;BME280;24211;49.980;19.776;2022-08-01T13:40:10;99015.97;;;31.48;36.71
38939;BME280;24211;49.980;19.776;2022-08-01T13:42:38;99014.06;;;31.52;36.66
38939;BME280;24211;49.980;19.776;2022-08-01T13:45:07;99022.81;;;31.57;36.26
38939;BME280;24211;49.980;19.776;2022-08-01T13:47:42;99014.72;;;31.68;36.54
38939;BME280;24211;49.980;19.776;2022-08-01T13:50:30;99015.91;;;31.97;34.90
38939;BME280;24211;49.980;19.776;2022-08-01T13:52:58;99014.06;;;32.01;34.69
38939;BME280;24211;49.980;19.776;2022-08-01T13:55:26;99016.06;;;32.04;34.60
38939;BME280;24211;49.980;19.776;2022-08-01T13:58:00;99021.06;;;32.24;34.43
38939;BME280;24211;49.980;19.776;2022-08-01T14:00:32;99018.94;;;32.41;34.19
38939;BME280;24211;49.980;19.776;2022-08-01T14:02:59;99022.06;;;32.39;33.71
38939;BME280;24211;49.980;19.776;2022-08-01T14:05:27;99007.88;;;32.41;32.93
38939;BME280;24211;49.980;19.776;2022-08-01T14:07:54;99015.53;;;32.24;33.60
38939;BME280;24211;49.980;19.776;2022-08-01T14:10:24;99013.19;;;32.26;34.41
38939;BME280;24211;49.980;19.776;2022-08-01T14:12:52;99017.97;;;32.29;34.06
38939;BME280;24211;49.980;19.776;2022-08-01T14:15:23;99022.06;;;32.39;34.41
38939;BME280;24211;49.980;19.776;2022-08-01T14:18:20;99023.31;;;32.75;33.22
38939;BME280;24211;49.980;19.776;2022-08-01T14:20:47;99019.44;;;32.83;33.52
38939;BME280;24211;49.980;19.776;2022-08-01T14:23:16;99021.53;;;32.93;33.14
38939;BME280;24211;49.980;19.776;2022-08-01T14:25:44;99017.50;;;32.87;33.37
38939;BME280;24211;49.980;19.776;2022-08-01T14:28:32;99015.56;;;32.87;33.44
38939;BME280;24211;49.980;19.776;2022-08-01T14:31:00;99016.25;;;32.81;33.45
38939;BME280;24211;49.980;19.776;2022-08-01T14:33:29;99026.91;;;32.79;33.87
38939;BME280;24211;49.980;19.776;2022-08-01T14:36:00;99029.59;;;32.72;34.60
38939;BME280;24211;49.980;19.776;2022-08-01T14:38:48;99020.03;;;32.66;34.34
38939;BME280;24211;49.980;19.776;2022-08-01T14:41:15;99031.88;;;32.63;35.14
38939;BME280;24211;49.980;19.776;2022-08-01T14:43:43;99031.06;;;32.62;34.88
38939;BME280;24211;49.980;19.776;2022-08-01T14:46:11;99025.16;;;32.64;34.94
38939;BME280;24211;49.980;19.776;2022-08-01T14:48:40;99022.91;;;32.73;34.21
38939;BME280;24211;49.980;19.776;2022-08-01T14:51:08;99025.00;;;32.86;34.22
38939;BME280;24211;49.980;19.776;2022-08-01T14:53:35;99018.00;;;32.96;34.05
38939;BME280;24211;49.980;19.776;2022-08-01T14:56:04;99029.06;;;32.96;34.45
38939;BME280;24211;49.980;19.776;2022-08-01T14:58:33;99021.78;;;33.14;34.51
38939;BME280;24211;49.980;19.776;2022-08-01T15:01:01;99019.63;;;33.01;33.90
38939;BME280;24211;49.980;19.776;2022-08-01T15:03:31;99021.94;;;32.95;33.80
38939;BME280;24211;49.980;19.776;2022-08-01T15:05:59;99015.56;;;32.91;34.10
38939;BME280;24211;49.980;19.776;2022-08-01T15:08:27;99023.69;;;33.10;33.76
38939;BME280;24211;49.980;19.776;2022-08-01T15:10:54;99021.78;;;33.14;33.54
38939;BME280;24211;49.980;19.776;2022-08-01T15:13:22;99026.06;;;33.08;33.36
38939;BME280;24211;49.980;19.776;2022-08-01T15:15:50;99022.25;;;33.23;33.37
38939;BME280;24211;49.980;19.776;2022-08-01T15:18:19;99019.13;;;33.28;33.45
38939;BME280;24211;49.980;19.776;2022-08-01T15:20:46;99026.69;;;33.31;33.53
38939;BME280;24211;49.980;19.776;2022-08-01T15:23:13;99029.03;;;33.29;34.29
38939;BME280;24211;49.980;19.776;2022-08-01T15:25:41;99023.91;;;33.31;34.60
38939;BME280;24211;49.980;19.776;2022-08-01T15:28:09;99030.25;;;33.32;34.81
38939;BME280;24211;49.980;19.776;2022-08-01T15:30:38;99033.31;;;33.23;35.97
38939;BME280;24211;49.980;19.776;2022-08-01T15:33:06;99034.84;;;33.17;35.90
38939;BME280;24211;49.980;19.776;2022-08-01T15:35:33;99032.56;;;33.26;35.15
38939;BME280;24211;49.980;19.776;2022-08-01T15:38:02;99027.09;;;33.33;35.61
38939;BME280;24211;49.980;19.776;2022-08-01T15:40:30;99023.22;;;33.41;35.46
38939;BME280;24211;49.980;19.776;2022-08-01T15:43:02;99026.16;;;33.63;34.14
38939;BME280;24211;49.980;19.776;2022-08-01T15:45:29;99024.53;;;34.09;32.69